Time;durP1;ratioP1;P1;durP2;ratioP2;P2;SDS_P1;SDS_P2;PMS_P1;PMS_P2;Temp;Humidity;BMP_temperature;BMP_pressure;BME280_temperature;BME280_humidity;BME280_pressure;Samples;Min_cycle;Max_cycle;Signal;HPM_P1;HPM_P2
2023/06/07 04:02:03;;;;;;;2.80;2.70;;;13.90;99.90;;;;;;5242386;23;20517;-72
2023/06/07 04:04:32;;;;;;;5.03;2.00;;;13.90;99.90;;;;;;4992243;28;20596;-72
2023/06/07 04:07:00;;;;;;;3.93;3.20;;;13.90;99.90;;;;;;4989870;28;20955;-72
2023/06/07 04:09:27;;;;;;;4.33;1.93;;;14.00;99.90;;;;;;4988598;28;20467;-72
2023/06/07 04:11:54;;;;;;;2.30;2.10;;;13.90;99.90;;;;;;4988573;28;20491;-72
2023/06/07 04:14:21;;;;;;;5.27;2.40;;;14.00;99.90;;;;;;4985584;28;20482;-72
2023/06/07 04:16:48;;;;;;;5.10;3.00;;;14.00;99.90;;;;;;4992705;23;21054;-70
2023/06/07 04:19:16;;;;;;;13.03;3.60;;;14.00;99.90;;;;;;4972793;28;20471;-70
2023/06/07 04:21:42;;;;;;;4.57;2.57;;;14.00;99.90;;;;;;4973716;28;20468;-71
2023/06/07 04:24:09;;;;;;;5.07;2.77;;;14.40;99.90;;;;;;4972636;28;20534;-70
2023/06/07 04:26:37;;;;;;;2.10;2.00;;;15.00;99.90;;;;;;4970201;28;20567;-70
2023/06/07 04:29:04;;;;;;;2.40;2.30;;;15.50;99.90;;;;;;4953683;28;20499;-70
2023/06/07 04:31:34;;;;;;;5.03;2.43;;;16.10;99.90;;;;;;4951344;28;20477;-70
2023/06/07 04:34:02;;;;;;;2.37;2.27;;;16.60;99.90;;;;;;4952963;28;20803;-70
2023/06/07 04:36:30;;;;;;;2.30;2.13;;;16.90;99.90;;;;;;4944689;28;20559;-70
2023/06/07 04:38:56;;;;;;;5.33;2.03;;;17.10;99.90;;;;;;4953411;29;20547;-70
2023/06/07 04:41:25;;;;;;;1.97;1.87;;;17.20;99.90;;;;;;4948899;28;20492;-70
2023/06/07 04:43:53;;;;;;;4.47;2.10;;;17.50;99.90;;;;;;4947845;28;20497;-70
2023/06/07 04:46:20;;;;;;;3.63;2.00;;;17.80;99.90;;;;;;4951498;28;20867;-69
2023/06/07 04:48:47;;;;;;;1.73;1.60;;;18.00;99.90;;;;;;4952898;29;20941;-69
2023/06/07 04:51:13;;;;;;;2.30;1.53;;;18.20;99.90;;;;;;4951861;28;20574;-69
2023/06/07 04:53:42;;;;;;;1.77;1.67;;;18.50;99.90;;;;;;4952830;29;20871;-70
2023/06/07 04:56:09;;;;;;;5.17;2.33;;;18.80;99.90;;;;;;4950431;28;20475;-70
2023/06/07 04:58:39;;;;;;;2.20;2.07;;;18.50;99.90;;;;;;4952240;28;20523;-70
2023/06/07 05:01:05;;;;;;;2.17;1.90;;;18.50;99.90;;;;;;4946864;28;20572;-70
2023/06/07 05:03:32;;;;;;;3.30;3.00;;;18.90;99.90;;;;;;4951367;29;20478;-69
2023/06/07 05:06:00;;;;;;;4.97;1.80;;;19.10;99.90;;;;;;4952155;29;20476;-70
2023/06/07 05:08:27;;;;;;;1.33;1.23;;;19.70;99.90;;;;;;4934284;29;20478;-70
2023/06/07 05:10:55;;;;;;;3.10;1.80;;;20.00;99.90;;;;;;4933177;29;20490;-70
2023/06/07 05:13:22;;;;;;;1.60;1.30;;;20.10;99.90;;;;;;4948390;28;20491;-70
2023/06/07 05:15:50;;;;;;;1.53;1.43;;;20.40;99.90;;;;;;4952771;28;20569;-71
2023/06/07 05:18:18;;;;;;;3.40;1.60;;;20.60;99.90;;;;;;4948209;29;20501;-70
2023/06/07 05:20:45;;;;;;;1.30;1.30;;;20.90;99.90;;;;;;4953047;29;20465;-70
2023/06/07 05:23:16;;;;;;;1.73;1.73;;;20.70;99.90;;;;;;4952084;28;20472;-70
2023/06/07 05:25:43;;;;;;;1.63;1.43;;;20.70;99.90;;;;;;4951923;29;20469;-71
2023/06/07 05:28:11;;;;;;;2.20;1.80;;;21.00;99.90;;;;;;4952374;28;20515;-70
2023/06/07 05:30:38;;;;;;;1.27;1.27;;;21.20;99.90;;;;;;4953038;29;20469;-71
2023/06/07 05:33:06;;;;;;;1.37;1.37;;;20.70;99.90;;;;;;4951634;28;20845;-70
2023/06/07 05:35:33;;;;;;;1.73;1.47;;;20.80;99.90;;;;;;4949344;28;21013;-71
2023/06/07 05:38:00;;;;;;;1.90;1.50;;;20.70;99.90;;;;;;4953266;28;21002;-71
2023/06/07 05:40:27;;;;;;;3.00;2.90;;;21.20;99.90;;;;;;4951672;28;20893;-70
2023/06/07 05:42:56;;;;;;;1.70;1.60;;;21.30;99.90;;;;;;4952055;29;20483;-71
2023/06/07 05:45:24;;;;;;;1.70;1.60;;;21.60;99.90;;;;;;4952507;29;20468;-71
2023/06/07 05:47:50;;;;;;;1.50;1.50;;;21.60;99.90;;;;;;4952784;28;20546;-70
2023/06/07 05:50:20;;;;;;;1.57;1.40;;;21.50;99.90;;;;;;4952770;29;20493;-70
2023/06/07 05:52:47;;;;;;;2.20;2.20;;;21.40;99.90;;;;;;4947663;29;20494;-70
2023/06/07 05:55:14;;;;;;;1.13;1.13;;;21.10;99.90;;;;;;4951060;28;20977;-70
2023/06/07 05:57:43;;;;;;;1.80;1.70;;;21.10;99.90;;;;;;4952467;28;21206;-70
2023/06/07 06:00:11;;;;;;;2.37;1.50;;;21.50;99.90;;;;;;4951060;29;20552;-70
2023/06/07 06:02:41;;;;;;;4.30;1.47;;;21.80;99.90;;;;;;4947161;29;20917;-71
2023/06/07 06:05:08;;;;;;;4.33;1.63;;;22.10;99.90;;;;;;4952369;28;20549;-71
2023/06/07 06:07:35;;;;;;;1.60;1.60;;;22.20;99.90;;;;;;4952931;28;20552;-71
2023/06/07 06:10:02;;;;;;;1.57;1.47;;;22.40;99.90;;;;;;4951680;28;20954;-71
2023/06/07 06:12:29;;;;;;;2.27;1.70;;;22.50;99.90;;;;;;4950734;29;20495;-71
2023/06/07 06:14:56;;;;;;;1.50;1.40;;;22.40;99.90;;;;;;4952516;28;20523;-70
2023/06/07 06:17:22;;;;;;;2.77;1.10;;;22.30;99.90;;;;;;4949604;28;20833;-70
2023/06/07 06:19:50;;;;;;;1.63;1.53;;;22.30;99.90;;;;;;4950624;28;20521;-70
2023/06/07 06:22:17;;;;;;;1.50;1.40;;;22.70;99.90;;;;;;4950861;29;20468;-70
2023/06/07 06:24:45;;;;;;;1.30;1.30;;;23.00;99.90;;;;;;4950603;28;20543;-71
2023/06/07 06:27:12;;;;;;;1.20;1.20;;;23.40;99.90;;;;;;4956527;28;20492;-70
2023/06/07 06:29:39;;;;;;;1.30;1.30;;;23.60;99.90;;;;;;4956627;28;20465;-70
2023/06/07 06:32:07;;;;;;;1.80;1.10;;;23.90;99.90;;;;;;4955591;29;20507;-69
2023/06/07 06:34:34;;;;;;;1.23;1.23;;;24.00;99.90;;;;;;4955697;28;20468;-70
2023/06/07 06:37:04;;;;;;;1.50;1.50;;;24.30;99.90;;;;;;4956334;28;20484;-69
2023/06/07 06:39:31;;;;;;;1.17;1.17;;;24.00;99.90;;;;;;4955379;29;20938;-69
2023/06/07 06:41:58;;;;;;;2.63;1.40;;;22.80;99.90;;;;;;4954478;29;20938;-69
2023/06/07 06:44:24;;;;;;;1.20;1.20;;;22.80;99.90;;;;;;4955866;29;20464;-69
2023/06/07 06:46:51;;;;;;;2.50;1.20;;;23.50;99.90;;;;;;4956176;28;20878;-69
2023/06/07 06:49:18;;;;;;;1.00;1.00;;;24.10;99.90;;;;;;4953836;28;20987;-70
2023/06/07 06:51:45;;;;;;;1.00;1.00;;;24.10;99.90;;;;;;4948934;28;20488;-70
2023/06/07 06:54:14;;;;;;;1.17;1.17;;;23.10;99.90;;;;;;4955352;29;20880;-70
2023/06/07 06:56:40;;;;;;;1.17;1.17;;;23.70;99.90;;;;;;4956246;28;20492;-70
2023/06/07 06:59:07;;;;;;;2.97;1.50;;;24.70;99.90;;;;;;4956464;29;20472;-71
2023/06/07 07:01:45;;;;;;;1.57;1.13;;;24.40;99.90;;;;;;4956049;29;20464;-71
2023/06/07 07:04:12;;;;;;;1.37;1.37;;;24.30;99.90;;;;;;4954306;28;20551;-71
2023/06/07 07:06:39;;;;;;;0.70;0.70;;;24.60;99.90;;;;;;4956128;28;20484;-71
2023/06/07 07:09:05;;;;;;;1.47;1.47;;;25.10;99.90;;;;;;4952887;29;20468;-71
2023/06/07 07:11:33;;;;;;;1.33;1.33;;;24.70;99.90;;;;;;4952246;28;20488;-71
2023/06/07 07:14:00;;;;;;;1.50;1.40;;;24.20;99.90;;;;;;4955501;28;20465;-70
2023/06/07 07:16:27;;;;;;;4.13;1.87;;;24.30;99.90;;;;;;4955805;28;20528;-70
2023/06/07 07:18:53;;;;;;;1.40;1.30;;;24.30;99.90;;;;;;4954108;28;20834;-71
2023/06/07 07:21:20;;;;;;;2.87;1.70;;;24.30;99.90;;;;;;4956009;28;20532;-71
2023/06/07 07:23:47;;;;;;;2.00;1.57;;;24.10;99.90;;;;;;4953815;28;20551;-71
2023/06/07 07:26:14;;;;;;;1.80;1.23;;;24.50;99.90;;;;;;4952446;28;20527;-70
2023/06/07 07:28:42;;;;;;;1.30;1.20;;;24.80;99.90;;;;;;4950788;28;20488;-71
2023/06/07 07:31:09;;;;;;;1.20;1.20;;;25.30;99.90;;;;;;4952056;29;20539;-71
2023/06/07 07:33:35;;;;;;;1.70;1.37;;;25.80;99.60;;;;;;4954819;29;20464;-71
2023/06/07 07:36:02;;;;;;;1.70;1.60;;;25.60;99.40;;;;;;4954609;28;20547;-71
2023/06/07 07:38:32;;;;;;;0.77;0.77;;;25.40;99.60;;;;;;4936456;29;20893;-71
2023/06/07 07:40:59;;;;;;;1.70;1.60;;;25.20;99.30;;;;;;4940364;28;20468;-71
2023/06/07 07:43:26;;;;;;;1.10;1.10;;;25.20;99.90;;;;;;4954389;29;20489;-71
2023/06/07 07:45:54;;;;;;;1.20;1.20;;;25.60;99.60;;;;;;4954809;29;20465;-71
2023/06/07 07:48:21;;;;;;;1.30;1.30;;;24.70;99.70;;;;;;4955441;28;20544;-71
2023/06/07 07:50:47;;;;;;;1.90;1.63;;;24.50;99.90;;;;;;4955531;29;20476;-71
2023/06/07 07:53:15;;;;;;;1.20;1.10;;;24.50;99.90;;;;;;4955024;29;20496;-71
2023/06/07 07:55:41;;;;;;;1.57;1.47;;;24.50;99.90;;;;;;4952791;28;20588;-71
2023/06/07 07:58:08;;;;;;;1.63;1.53;;;24.90;99.90;;;;;;4953709;28;20555;-71
2023/06/07 08:00:35;;;;;;;1.80;1.70;;;25.10;99.90;;;;;;4954082;29;20472;-71
2023/06/07 08:03:03;;;;;;;1.17;1.17;;;25.20;99.80;;;;;;4954381;29;20457;-71
2023/06/07 08:05:30;;;;;;;3.47;1.40;;;25.60;99.90;;;;;;4953452;29;20464;-72
2023/06/07 08:07:57;;;;;;;1.00;1.00;;;26.00;99.30;;;;;;4954901;28;20481;-71
2023/06/07 08:10:24;;;;;;;2.20;1.37;;;25.40;99.90;;;;;;4950277;28;20528;-72
2023/06/07 08:12:51;;;;;;;2.53;1.93;;;25.50;99.70;;;;;;4948740;29;20496;-72
2023/06/07 08:15:19;;;;;;;1.20;1.20;;;25.50;99.10;;;;;;4954509;29;20457;-71
2023/06/07 08:17:45;;;;;;;2.33;2.20;;;24.80;99.50;;;;;;4954306;28;20489;-72
2023/06/07 08:20:14;;;;;;;2.47;2.37;;;24.00;99.90;;;;;;4954700;29;20524;-71
2023/06/07 08:22:43;;;;;;;1.50;1.47;;;23.50;99.90;;;;;;4952210;29;20589;-71
2023/06/07 08:25:13;;;;;;;1.33;1.23;;;23.60;99.90;;;;;;4952737;28;20469;-72
2023/06/07 08:27:40;;;;;;;2.00;1.90;;;23.70;99.90;;;;;;4953405;28;20580;-72
2023/06/07 08:30:08;;;;;;;2.17;2.07;;;23.70;99.90;;;;;;4953648;29;20469;-72
2023/06/07 08:32:34;;;;;;;2.20;1.60;;;23.90;99.90;;;;;;4946518;29;20478;-71
2023/06/07 08:35:01;;;;;;;1.70;1.60;;;24.10;99.90;;;;;;4953861;29;20472;-72
2023/06/07 08:37:29;;;;;;;1.20;1.20;;;24.70;99.90;;;;;;4942334;28;20491;-71
2023/06/07 08:39:56;;;;;;;2.93;1.30;;;25.20;99.90;;;;;;4953240;28;20476;-72
2023/06/07 08:42:22;;;;;;;2.33;2.23;;;25.40;99.90;;;;;;4953710;29;20874;-71
2023/06/07 08:44:51;;;;;;;1.77;1.67;;;25.70;98.60;;;;;;4961349;28;20598;-71
2023/06/07 08:47:20;;;;;;;1.93;1.47;;;26.10;99.20;;;;;;4974515;28;20508;-71
2023/06/07 08:49:49;;;;;;;1.17;1.13;;;26.00;98.40;;;;;;4975928;28;20520;-72
2023/06/07 08:52:17;;;;;;;1.20;1.20;;;26.10;98.10;;;;;;4975298;29;20483;-71
2023/06/07 08:54:48;;;;;;;1.97;1.30;;;26.20;98.30;;;;;;4969602;28;20516;-71
2023/06/07 08:57:16;;;;;;;2.40;1.20;;;26.30;97.50;;;;;;4955202;28;20856;-71
2023/06/07 08:59:44;;;;;;;1.77;1.67;;;26.50;97.10;;;;;;4955013;29;20457;-71
2023/06/07 09:02:12;;;;;;;1.27;1.27;;;26.10;97.40;;;;;;4954388;29;20581;-71
2023/06/07 09:04:40;;;;;;;1.30;1.30;;;26.30;97.60;;;;;;4951171;28;20465;-72
2023/06/07 09:07:07;;;;;;;1.47;1.43;;;26.20;97.50;;;;;;4952279;28;20492;-71
2023/06/07 09:09:34;;;;;;;1.73;1.73;;;25.80;97.60;;;;;;4951901;29;20480;-71
2023/06/07 09:12:03;;;;;;;1.40;1.40;;;25.60;97.90;;;;;;4952066;29;22375;-72
2023/06/07 09:14:30;;;;;;;1.30;1.30;;;25.60;97.80;;;;;;4949457;29;20553;-72
2023/06/07 09:16:59;;;;;;;1.90;1.80;;;25.60;97.70;;;;;;4950693;28;20508;-72
2023/06/07 09:19:36;;;;;;;1.23;1.23;;;25.40;98.00;;;;;;4951729;28;20473;-71
2023/06/07 09:22:03;;;;;;;1.57;1.47;;;25.20;98.10;;;;;;4953346;29;20517;-73
2023/06/07 09:24:31;;;;;;;1.10;1.10;;;25.10;99.30;;;;;;4951930;29;20563;-71
2023/06/07 09:26:58;;;;;;;1.77;1.77;;;25.10;99.80;;;;;;4948012;28;20492;-71
2023/06/07 09:29:27;;;;;;;2.17;2.10;;;24.70;98.80;;;;;;4950927;28;20477;-71
2023/06/07 09:31:55;;;;;;;1.67;1.57;;;24.50;99.90;;;;;;4947664;29;20498;-71
2023/06/07 09:34:23;;;;;;;2.70;2.10;;;24.50;99.90;;;;;;4945652;28;20464;-71
2023/06/07 09:36:51;;;;;;;1.70;1.50;;;24.50;99.90;;;;;;4951880;28;20498;-71
2023/06/07 09:39:22;;;;;;;1.77;1.70;;;24.40;99.90;;;;;;4949256;29;20470;-71
2023/06/07 09:41:50;;;;;;;1.60;1.60;;;24.50;99.90;;;;;;4944804;28;20969;-72
2023/06/07 09:44:22;;;;;;;1.93;1.83;;;24.50;99.90;;;;;;4951476;29;20476;-72
2023/06/07 09:46:50;;;;;;;1.97;1.87;;;24.50;99.90;;;;;;4951676;28;20491;-72
2023/06/07 09:49:23;;;;;;;1.60;1.60;;;24.60;99.90;;;;;;4953185;29;20460;-72
2023/06/07 09:51:53;;;;;;;2.50;2.00;;;24.60;99.90;;;;;;4953223;28;20956;-71
2023/06/07 09:54:21;;;;;;;1.70;1.60;;;24.40;99.90;;;;;;4948221;28;20982;-71
2023/06/07 09:56:48;;;;;;;2.30;1.70;;;24.40;99.90;;;;;;4953440;28;20477;-71
2023/06/07 09:59:16;;;;;;;1.77;1.77;;;24.40;99.90;;;;;;4952260;28;20529;-71
2023/06/07 10:01:45;;;;;;;3.70;1.87;;;24.40;99.90;;;;;;4953323;29;20464;-71
2023/06/07 10:04:14;;;;;;;1.60;1.60;;;24.40;99.90;;;;;;4952914;29;20884;-72
2023/06/07 10:06:42;;;;;;;4.67;2.03;;;24.30;99.90;;;;;;4948881;28;20516;-70
2023/06/07 10:09:10;;;;;;;2.40;2.30;;;24.20;99.90;;;;;;4945762;28;20475;-70
2023/06/07 10:11:38;;;;;;;2.10;2.03;;;24.20;99.90;;;;;;4952387;28;20951;-71
2023/06/07 10:14:07;;;;;;;1.90;1.80;;;24.30;99.90;;;;;;4950967;29;21011;-71
2023/06/07 10:16:40;;;;;;;2.10;2.00;;;24.40;99.90;;;;;;4951058;28;20957;-71
2023/06/07 10:19:16;;;;;;;2.07;1.97;;;24.50;99.90;;;;;;4952478;29;20478;-71
2023/06/07 10:21:46;;;;;;;2.57;1.87;;;24.50;99.90;;;;;;4951676;28;20456;-71
2023/06/07 10:24:17;;;;;;;2.03;1.93;;;24.50;99.90;;;;;;4950054;29;20818;-69
2023/06/07 10:26:52;;;;;;;1.60;1.60;;;24.60;99.90;;;;;;4979462;23;21038;-74
2023/06/07 10:29:26;;;;;;;1.97;1.87;;;24.70;99.90;;;;;;4962713;28;20465;-75
2023/06/07 10:32:03;;;;;;;3.33;2.13;;;24.60;99.90;;;;;;4969178;28;20475;-75
2023/06/07 10:34:33;;;;;;;3.20;2.13;;;24.50;99.90;;;;;;4966659;28;20475;-74
2023/06/07 10:37:00;;;;;;;2.53;2.40;;;24.50;99.90;;;;;;4959817;28;20503;-75
2023/06/07 10:39:27;;;;;;;2.13;2.03;;;24.60;99.90;;;;;;4967179;28;20834;-75
2023/06/07 10:41:55;;;;;;;2.13;2.03;;;24.70;99.90;;;;;;4971347;28;20527;-74
2023/06/07 10:44:21;;;;;;;2.00;1.90;;;24.80;99.90;;;;;;4970900;28;20460;-74
2023/06/07 10:46:48;;;;;;;1.70;1.70;;;24.80;99.90;;;;;;4972203;28;20484;-76
2023/06/07 10:49:37;;;;;;;1.77;1.77;;;24.90;99.90;;;;;;4972576;28;20499;-76
2023/06/07 10:52:06;;;;;;;2.37;1.93;;;24.80;99.70;;;;;;4971154;28;21127;-76
2023/06/07 10:54:33;;;;;;;2.37;2.17;;;24.70;99.90;;;;;;4968419;28;20498;-75
2023/06/07 10:57:02;;;;;;;2.63;2.43;;;24.70;99.90;;;;;;4971732;28;20569;-75
2023/06/07 10:59:29;;;;;;;2.03;1.97;;;24.70;99.60;;;;;;4971383;28;20474;-75
2023/06/07 11:02:20;;;;;;;2.20;2.10;;;24.60;99.90;;;;;;4971919;28;20459;-75
2023/06/07 11:04:58;;;;;;;3.10;1.87;;;24.60;99.10;;;;;;4967620;28;20543;-75
2023/06/07 11:07:28;;;;;;;2.90;2.57;;;24.80;99.10;;;;;;4969227;28;20499;-73
2023/06/07 11:10:29;;;;;;;1.83;1.83;;;25.00;98.30;;;;;;4970087;28;20475;-75
2023/06/07 11:12:57;;;;;;;2.50;2.10;;;25.10;98.40;;;;;;4966753;28;20484;-74
2023/06/07 11:15:30;;;;;;;2.57;2.40;;;25.10;98.70;;;;;;4974615;28;20484;-74
2023/06/07 11:17:58;;;;;;;1.90;1.87;;;25.00;98.50;;;;;;4972343;28;20490;-74
2023/06/07 11:20:51;;;;;;;2.53;2.33;;;25.00;98.80;;;;;;4962682;28;20460;-75
2023/06/07 11:23:23;;;;;;;6.10;2.10;;;25.10;97.90;;;;;;4968473;28;20547;-75
2023/06/07 11:25:51;;;;;;;2.50;2.30;;;25.10;97.90;;;;;;4974269;28;20524;-75
2023/06/07 11:28:22;;;;;;;2.53;1.90;;;25.20;97.50;;;;;;4974978;28;20516;-74
2023/06/07 11:30:49;;;;;;;2.33;2.17;;;25.20;96.80;;;;;;4974278;28;20547;-74
2023/06/07 11:33:16;;;;;;;2.23;1.97;;;25.30;97.20;;;;;;4974580;28;20495;-73
2023/06/07 11:35:43;;;;;;;10.37;2.90;;;25.30;97.40;;;;;;4973095;28;20491;-74
2023/06/07 11:38:11;;;;;;;3.73;3.63;;;25.30;96.90;;;;;;4971990;28;20889;-74
2023/06/07 11:40:38;;;;;;;2.70;2.60;;;25.40;96.20;;;;;;4972342;28;20499;-75
2023/06/07 11:43:05;;;;;;;4.33;2.60;;;25.50;96.30;;;;;;4970628;28;20461;-74
2023/06/07 11:45:33;;;;;;;2.10;2.10;;;25.50;96.50;;;;;;4973662;28;20583;-73
2023/06/07 11:48:02;;;;;;;3.20;2.10;;;25.50;96.00;;;;;;4972158;28;20470;-74
2023/06/07 11:50:28;;;;;;;3.90;2.20;;;25.60;95.80;;;;;;4966920;28;20553;-74
2023/06/07 11:52:56;;;;;;;2.27;2.17;;;25.30;95.80;;;;;;4967418;28;20518;-75
2023/06/07 11:55:25;;;;;;;2.10;2.03;;;25.30;95.70;;;;;;4972354;28;21308;-75
2023/06/07 11:57:53;;;;;;;2.60;2.50;;;25.30;96.10;;;;;;4958135;28;20482;-75
2023/06/07 12:00:23;;;;;;;2.33;2.23;;;25.50;95.80;;;;;;4973397;28;20494;-76
2023/06/07 12:02:50;;;;;;;2.70;2.50;;;25.60;95.90;;;;;;4971205;28;20467;-74
2023/06/07 12:05:17;;;;;;;2.40;2.40;;;25.50;95.20;;;;;;4971657;28;20490;-74
2023/06/07 12:07:44;;;;;;;2.50;2.40;;;25.60;95.60;;;;;;4972557;28;20479;-74
2023/06/07 12:10:12;;;;;;;2.10;2.10;;;25.70;95.40;;;;;;4970935;28;20814;-74
2023/06/07 12:12:40;;;;;;;2.40;2.30;;;25.90;94.90;;;;;;4973030;28;20478;-74
2023/06/07 12:15:07;;;;;;;1.50;1.50;;;26.00;94.70;;;;;;4970338;28;20901;-75
2023/06/07 12:17:35;;;;;;;2.50;2.43;;;25.90;94.10;;;;;;4974791;28;20551;-74
2023/06/07 12:20:11;;;;;;;3.10;2.90;;;25.90;94.10;;;;;;4966317;28;20473;-74
2023/06/07 12:22:39;;;;;;;2.10;2.10;;;25.90;94.20;;;;;;4971442;28;21047;-74
2023/06/07 12:25:10;;;;;;;2.90;2.70;;;26.00;94.20;;;;;;4970912;28;20464;-73
2023/06/07 12:27:37;;;;;;;2.07;1.97;;;26.00;94.10;;;;;;4973633;28;20537;-73
2023/06/07 12:30:07;;;;;;;2.70;2.50;;;26.00;94.10;;;;;;4972596;28;20526;-74
2023/06/07 12:32:34;;;;;;;2.07;2.00;;;26.10;94.10;;;;;;4965020;28;20498;-74
2023/06/07 12:35:02;;;;;;;2.33;2.23;;;26.00;93.40;;;;;;4973147;28;20491;-72
2023/06/07 12:37:29;;;;;;;2.13;2.10;;;26.00;94.20;;;;;;4972363;28;20483;-73
2023/06/07 12:39:56;;;;;;;2.93;2.80;;;26.10;94.20;;;;;;4967589;28;20924;-74
2023/06/07 12:42:22;;;;;;;3.03;2.83;;;25.90;93.60;;;;;;4971285;28;20467;-77
2023/06/07 12:44:50;;;;;;;3.50;2.87;;;25.90;94.10;;;;;;4976367;28;20458;-73
2023/06/07 12:47:18;;;;;;;2.40;2.30;;;26.00;93.80;;;;;;4973709;28;20506;-75
2023/06/07 12:49:45;;;;;;;2.23;2.13;;;26.10;94.20;;;;;;4973270;28;20466;-74
2023/06/07 12:52:12;;;;;;;1.93;1.90;;;26.00;94.30;;;;;;4974858;28;20474;-75
2023/06/07 12:54:38;;;;;;;3.60;3.30;;;26.10;93.90;;;;;;4970895;28;20485;-75
2023/06/07 12:57:06;;;;;;;2.33;2.23;;;26.10;93.20;;;;;;4966743;28;20492;-76
2023/06/07 12:59:32;;;;;;;3.10;2.90;;;26.20;93.50;;;;;;4972870;28;20465;-74
2023/06/07 13:01:59;;;;;;;2.80;2.70;;;26.10;93.30;;;;;;4965876;28;20484;-75
2023/06/07 13:04:27;;;;;;;3.80;2.47;;;26.10;94.20;;;;;;4972506;28;20474;-75
2023/06/07 13:06:54;;;;;;;2.57;2.47;;;26.20;93.50;;;;;;4971940;28;20505;-69
2023/06/07 13:09:21;;;;;;;3.03;2.93;;;26.20;93.50;;;;;;4971206;28;20499;-71
2023/06/07 13:11:48;;;;;;;2.67;2.57;;;26.30;93.40;;;;;;4972102;28;20848;-73
2023/06/07 13:14:15;;;;;;;2.33;2.13;;;26.40;93.10;;;;;;4968172;28;20492;-74
2023/06/07 13:16:43;;;;;;;3.10;2.60;;;26.40;92.90;;;;;;4972784;28;20812;-74
2023/06/07 13:19:10;;;;;;;2.27;2.20;;;26.50;93.20;;;;;;4968697;28;20478;-74
2023/06/07 13:21:40;;;;;;;2.57;2.43;;;26.70;93.00;;;;;;4971807;28;20474;-75
2023/06/07 13:24:07;;;;;;;2.00;1.90;;;26.80;92.80;;;;;;4972043;28;20760;-76
2023/06/07 13:26:34;;;;;;;2.43;2.43;;;26.80;92.90;;;;;;4969419;28;20511;-76
2023/06/07 13:29:01;;;;;;;2.03;2.00;;;26.80;92.50;;;;;;4972175;28;20463;-75
2023/06/07 13:31:28;;;;;;;2.50;2.30;;;26.60;92.30;;;;;;4972491;28;20493;-75
2023/06/07 13:33:54;;;;;;;2.50;2.50;;;26.50;92.60;;;;;;4970403;28;20487;-75
2023/06/07 13:36:21;;;;;;;3.00;2.80;;;26.50;93.20;;;;;;4972035;28;20574;-75
2023/06/07 13:38:49;;;;;;;2.17;2.07;;;26.40;92.80;;;;;;4971528;28;20467;-76
2023/06/07 13:41:16;;;;;;;5.50;5.10;;;26.40;93.10;;;;;;4969596;28;20486;-75
2023/06/07 13:43:43;;;;;;;2.80;2.67;;;26.40;93.20;;;;;;4964030;28;20471;-76
2023/06/07 13:46:20;;;;;;;2.60;2.60;;;26.50;93.00;;;;;;4971741;28;20503;-76
2023/06/07 13:48:48;;;;;;;2.30;2.30;;;26.40;92.60;;;;;;4971199;28;20474;-75
2023/06/07 13:51:15;;;;;;;2.17;2.17;;;26.40;93.10;;;;;;4969002;28;20956;-76
2023/06/07 13:53:44;;;;;;;2.40;2.23;;;26.50;92.90;;;;;;4970001;28;20864;-76
2023/06/07 13:56:19;;;;;;;3.00;2.90;;;26.30;93.00;;;;;;4966501;28;20593;-76
2023/06/07 13:58:47;;;;;;;2.10;2.10;;;26.10;92.40;;;;;;4971463;28;20477;-76
2023/06/07 14:01:17;;;;;;;2.40;2.30;;;26.10;93.00;;;;;;4967261;28;20877;-76
2023/06/07 14:03:48;;;;;;;3.73;3.53;;;26.20;93.20;;;;;;4971089;28;20840;-75
2023/06/07 14:06:16;;;;;;;3.13;2.93;;;26.20;93.00;;;;;;4965229;28;20563;-76
2023/06/07 14:08:49;;;;;;;2.80;2.57;;;26.40;93.60;;;;;;4971875;28;20924;-74
2023/06/07 14:11:23;;;;;;;2.60;2.50;;;26.80;92.70;;;;;;4957928;28;20492;-74
2023/06/07 14:13:50;;;;;;;3.13;2.83;;;26.90;92.90;;;;;;4969908;28;22365;-74
2023/06/07 14:16:21;;;;;;;2.57;2.57;;;27.10;92.60;;;;;;4966437;28;20856;-74
2023/06/07 14:18:48;;;;;;;3.30;3.20;;;27.20;92.50;;;;;;4971631;28;20874;-74
2023/06/07 14:21:18;;;;;;;2.77;2.77;;;27.40;92.40;;;;;;4967098;28;20473;-75
2023/06/07 14:23:47;;;;;;;2.20;2.10;;;27.50;91.80;;;;;;4969434;28;20472;-75
2023/06/07 14:26:18;;;;;;;3.53;3.33;;;27.60;91.60;;;;;;4968054;28;20861;-76
2023/06/07 14:28:45;;;;;;;2.97;2.80;;;27.70;92.10;;;;;;4965182;28;20850;-76
2023/06/07 14:31:20;;;;;;;2.80;2.63;;;27.70;91.80;;;;;;4967497;28;20473;-75
2023/06/07 14:33:51;;;;;;;3.07;2.90;;;27.60;91.50;;;;;;4968750;28;20496;-76
2023/06/07 14:36:21;;;;;;;2.93;2.70;;;27.50;91.10;;;;;;4967105;28;20571;-76
2023/06/07 14:38:50;;;;;;;2.53;2.43;;;27.50;91.30;;;;;;4970869;28;20965;-75
2023/06/07 14:41:21;;;;;;;2.37;2.27;;;27.50;91.20;;;;;;4965370;28;20955;-75
2023/06/07 14:43:55;;;;;;;3.77;3.57;;;27.70;91.30;;;;;;4966384;28;21012;-76
2023/06/07 14:46:31;;;;;;;2.47;2.37;;;27.70;91.00;;;;;;4969518;28;21094;-75
2023/06/07 14:48:58;;;;;;;2.13;2.13;;;27.70;90.70;;;;;;4975462;28;20519;-76
2023/06/07 14:51:26;;;;;;;2.63;2.63;;;27.70;91.10;;;;;;4974575;28;20868;-76
2023/06/07 14:53:56;;;;;;;3.03;2.83;;;27.80;90.80;;;;;;4966535;28;20939;-76
2023/06/07 14:56:33;;;;;;;2.27;2.27;;;27.90;90.60;;;;;;4970998;28;20485;-75
2023/06/07 14:59:00;;;;;;;2.90;2.70;;;27.90;91.00;;;;;;4970081;28;20969;-76
2023/06/07 15:01:44;;;;;;;3.43;3.23;;;28.10;90.60;;;;;;4967555;28;20805;-75
2023/06/07 15:04:15;;;;;;;3.20;3.00;;;27.90;90.50;;;;;;4964936;28;20585;-75
2023/06/07 15:06:43;;;;;;;3.03;2.93;;;27.80;90.20;;;;;;4972569;28;20491;-75
2023/06/07 15:09:10;;;;;;;2.40;2.30;;;27.70;90.20;;;;;;4973187;28;20469;-75
2023/06/07 15:11:53;;;;;;;3.85;2.60;;;27.70;90.40;;;;;;4975157;28;20457;-75
2023/06/07 15:14:23;;;;;;;3.33;3.23;;;27.70;90.70;;;;;;4973792;28;20693;-75
2023/06/07 15:16:54;;;;;;;2.70;2.30;;;27.90;90.90;;;;;;4975309;28;20813;-75
2023/06/07 15:19:26;;;;;;;2.30;2.10;;;28.20;90.50;;;;;;4973675;28;20874;-74
2023/06/07 15:21:56;;;;;;;2.57;2.43;;;28.10;89.60;;;;;;4975359;28;20556;-74
2023/06/07 15:24:24;;;;;;;2.00;2.00;;;28.30;90.70;;;;;;4974472;28;20802;-74
2023/06/07 15:27:03;;;;;;;3.10;2.90;;;28.20;90.10;;;;;;4974668;28;20554;-75
2023/06/07 15:29:41;;;;;;;2.37;2.30;;;28.10;89.90;;;;;;4972863;28;20488;-75
2023/06/07 15:32:14;;;;;;;2.83;2.63;;;28.20;90.50;;;;;;4972786;28;20471;-75
2023/06/07 15:34:45;;;;;;;2.03;2.00;;;28.30;90.20;;;;;;4972515;28;20560;-75
2023/06/07 15:37:25;;;;;;;2.80;2.70;;;28.20;90.20;;;;;;4974014;28;20994;-74
2023/06/07 15:39:58;;;;;;;2.33;2.33;;;28.20;90.40;;;;;;4973953;28;20817;-74
2023/06/07 15:42:27;;;;;;;1.97;1.97;;;28.00;90.00;;;;;;4973597;28;20524;-72
2023/06/07 15:44:58;;;;;;;2.50;2.30;;;27.90;90.50;;;;;;4972138;28;20461;-74
2023/06/07 15:47:31;;;;;;;2.23;2.13;;;27.90;89.60;;;;;;4973633;28;20512;-73
2023/06/07 15:50:02;;;;;;;4.43;2.10;;;27.90;90.30;;;;;;4973743;28;20464;-74
2023/06/07 15:52:31;;;;;;;2.57;2.47;;;27.90;90.10;;;;;;4954678;28;20554;-75
2023/06/07 15:55:07;;;;;;;3.53;3.23;;;27.90;89.60;;;;;;4961295;28;20539;-75
2023/06/07 15:57:41;;;;;;;3.20;2.30;;;27.60;89.90;;;;;;4966489;28;20465;-74
2023/06/07 16:00:13;;;;;;;2.60;2.60;;;27.60;90.40;;;;;;4973979;28;20470;-75
2023/06/07 16:02:46;;;;;;;2.60;2.60;;;27.40;89.10;;;;;;4972615;28;20526;-75
2023/06/07 16:05:17;;;;;;;2.17;2.07;;;27.20;90.50;;;;;;4972510;28;20488;-75
2023/06/07 16:07:44;;;;;;;4.67;3.10;;;27.20;90.70;;;;;;4973937;28;20513;-75
2023/06/07 16:10:19;;;;;;;2.60;2.50;;;27.30;90.50;;;;;;4973098;28;20533;-75
2023/06/07 16:12:59;;;;;;;1.43;1.43;;;27.40;90.50;;;;;;4973168;28;20506;-75
2023/06/07 16:15:31;;;;;;;2.00;1.90;;;27.30;91.10;;;;;;4973549;28;20592;-75
2023/06/07 16:18:01;;;;;;;1.37;1.37;;;27.40;90.80;;;;;;4973226;28;20475;-75
2023/06/07 16:20:33;;;;;;;2.30;2.30;;;27.40;90.50;;;;;;4966303;28;20463;-75
2023/06/07 16:23:07;;;;;;;2.17;2.17;;;27.40;90.60;;;;;;4971509;28;20479;-75
2023/06/07 16:25:35;;;;;;;2.70;2.50;;;27.40;90.30;;;;;;4968785;28;20581;-75
2023/06/07 16:28:04;;;;;;;7.70;3.93;;;27.10;90.00;;;;;;4978902;28;20462;-73
2023/06/07 16:30:30;;;;;;;2.70;2.60;;;27.00;90.90;;;;;;4978079;28;20593;-73
2023/06/07 16:32:57;;;;;;;2.10;1.90;;;27.10;90.90;;;;;;4981554;28;20499;-74
2023/06/07 16:35:24;;;;;;;2.37;2.17;;;27.10;90.80;;;;;;4979724;28;20490;-74
2023/06/07 16:37:51;;;;;;;2.93;2.30;;;27.00;90.70;;;;;;4977810;28;20459;-73
2023/06/07 16:40:17;;;;;;;2.03;1.93;;;27.00;90.80;;;;;;4982783;28;20488;-74
2023/06/07 16:42:45;;;;;;;1.87;1.77;;;27.00;91.00;;;;;;4977672;28;20485;-73
2023/06/07 16:45:13;;;;;;;2.10;2.00;;;26.90;90.70;;;;;;4974855;28;20487;-73
2023/06/07 16:47:40;;;;;;;2.00;2.00;;;26.90;90.50;;;;;;4973359;28;20527;-74
2023/06/07 16:50:09;;;;;;;2.37;2.30;;;26.80;90.50;;;;;;4971675;28;20493;-74
2023/06/07 16:52:36;;;;;;;2.00;2.00;;;26.70;90.40;;;;;;4972221;28;20473;-75
2023/06/07 16:55:02;;;;;;;1.90;1.90;;;26.60;90.80;;;;;;4970203;28;20598;-74
2023/06/07 16:57:29;;;;;;;1.00;1.00;;;26.50;90.50;;;;;;4972039;28;20478;-73